createdAt,value
2023-08-16T00:01:15.855Z,23.16
2023-08-16T00:03:43.164Z,23.14
2023-08-16T00:06:12.052Z,23.14
2023-08-16T00:08:39.626Z,23.14
2023-08-16T00:11:07.308Z,23.10
2023-08-16T00:13:35.165Z,23.05
2023-08-16T00:16:02.887Z,22.98
2023-08-16T00:18:31.389Z,22.94
2023-08-16T00:21:00.682Z,22.93
2023-08-16T00:23:28.617Z,22.92
2023-08-16T00:25:58.404Z,22.90
2023-08-16T00:28:25.569Z,22.90
2023-08-16T00:30:55.434Z,22.85
2023-08-16T00:33:23.626Z,22.79
2023-08-16T00:35:52.943Z,22.74
2023-08-16T00:38:20.344Z,22.73
2023-08-16T00:40:53.382Z,22.71
2023-08-16T00:43:20.913Z,22.72
2023-08-16T00:45:55.704Z,22.73
2023-08-16T00:48:24.304Z,22.72
2023-08-16T00:50:52.240Z,22.72
2023-08-16T00:53:20.577Z,22.71
2023-08-16T00:55:48.000Z,22.69
2023-08-16T00:58:16.426Z,22.67
2023-08-16T01:00:43.678Z,22.64
2023-08-16T01:03:11.672Z,22.59
2023-08-16T01:05:39.228Z,22.56
2023-08-16T01:08:06.685Z,22.53
2023-08-16T01:10:59.675Z,22.54
2023-08-16T01:13:55.684Z,22.50
2023-08-16T01:16:27.468Z,22.43
2023-08-16T01:18:55.831Z,22.35
2023-08-16T01:21:24.845Z,22.32
2023-08-16T01:24:10.202Z,22.32
2023-08-16T01:26:39.367Z,22.32
2023-08-16T01:29:08.627Z,22.34
2023-08-16T01:31:35.636Z,22.32
2023-08-16T01:34:02.963Z,22.29
2023-08-16T01:36:30.195Z,22.25
2023-08-16T01:38:58.248Z,22.22
2023-08-16T01:41:37.481Z,22.19
2023-08-16T01:44:05.757Z,22.16
2023-08-16T01:46:34.301Z,22.15
2023-08-16T01:49:02.758Z,22.16
2023-08-16T01:51:29.835Z,22.18
2023-08-16T01:53:56.846Z,22.18
2023-08-16T01:56:23.947Z,22.17
2023-08-16T01:58:51.153Z,22.13
2023-08-16T02:01:18.249Z,22.08
2023-08-16T02:03:45.450Z,22.03
2023-08-16T02:06:12.524Z,22.02
2023-08-16T02:08:39.986Z,22.03
2023-08-16T02:11:06.931Z,22.03
2023-08-16T02:13:33.952Z,22.01
2023-08-16T02:16:05.048Z,21.99
2023-08-16T02:18:33.179Z,21.97
2023-08-16T02:21:00.320Z,21.92
2023-08-16T02:23:27.398Z,21.89
2023-08-16T02:25:54.751Z,21.87
2023-08-16T02:28:23.176Z,21.86
2023-08-16T02:30:50.380Z,21.81
2023-08-16T02:33:18.108Z,21.80
2023-08-16T02:35:45.583Z,21.77
2023-08-16T02:38:12.730Z,21.75
2023-08-16T02:40:40.079Z,21.73
2023-08-16T02:43:07.445Z,21.71
2023-08-16T02:45:36.591Z,21.72
2023-08-16T02:48:04.059Z,21.71
2023-08-16T02:50:34.205Z,21.70
2023-08-16T02:53:01.186Z,21.65
2023-08-16T02:55:31.103Z,21.62
2023-08-16T02:57:58.493Z,21.57
2023-08-16T03:00:25.600Z,21.53
2023-08-16T03:02:52.526Z,21.53
2023-08-16T03:05:19.714Z,21.51
2023-08-16T03:07:46.702Z,21.54
2023-08-16T03:10:13.848Z,21.53
2023-08-16T03:12:41.847Z,21.62
2023-08-16T03:15:09.898Z,21.64
2023-08-16T03:17:37.251Z,21.64
2023-08-16T03:20:07.759Z,21.64
2023-08-16T03:22:34.982Z,21.63
2023-08-16T03:25:02.218Z,21.63
2023-08-16T03:27:29.265Z,21.64
2023-08-16T03:29:56.901Z,21.66
2023-08-16T03:32:23.899Z,21.68
2023-08-16T03:34:50.866Z,21.72
2023-08-16T03:37:19.640Z,21.71
2023-08-16T03:39:46.930Z,21.68
2023-08-16T03:42:14.765Z,21.69
2023-08-16T03:44:41.827Z,21.71
2023-08-16T03:47:08.829Z,21.74
2023-08-16T03:49:35.778Z,21.78
2023-08-16T03:52:04.691Z,21.81
2023-08-16T03:54:34.152Z,21.85
2023-08-16T03:57:01.081Z,21.84
2023-08-16T03:59:28.138Z,21.79
2023-08-16T04:01:55.333Z,21.75
2023-08-16T04:04:22.456Z,21.66
2023-08-16T04:06:49.705Z,21.57
2023-08-16T04:09:17.938Z,21.58
2023-08-16T04:11:45.214Z,21.66
2023-08-16T04:14:12.571Z,21.73
2023-08-16T04:16:39.639Z,21.76
2023-08-16T04:19:06.602Z,21.80
2023-08-16T04:21:33.672Z,21.82
2023-08-16T04:24:01.812Z,21.85
2023-08-16T04:26:29.016Z,21.91
2023-08-16T04:28:56.085Z,21.95
2023-08-16T04:31:23.325Z,21.94
2023-08-16T04:33:51.452Z,21.96
2023-08-16T04:36:18.564Z,21.99
2023-08-16T04:38:46.783Z,22.02
2023-08-16T04:41:15.777Z,22.02
2023-08-16T04:43:43.754Z,22.06
2023-08-16T04:46:10.965Z,22.11
2023-08-16T04:48:38.684Z,22.23
2023-08-16T04:51:06.489Z,22.33
2023-08-16T04:53:33.783Z,22.41
2023-08-16T04:56:01.045Z,22.47
2023-08-16T04:58:29.705Z,22.52
2023-08-16T05:00:56.902Z,22.61
2023-08-16T05:03:24.255Z,22.70
2023-08-16T05:05:57.897Z,22.75
2023-08-16T05:08:25.281Z,22.80
2023-08-16T05:10:54.021Z,22.87
2023-08-16T05:13:22.396Z,22.91
2023-08-16T05:15:49.455Z,22.96
2023-08-16T05:18:17.146Z,23.01
2023-08-16T05:20:44.232Z,23.05
2023-08-16T05:23:11.158Z,23.07
2023-08-16T05:25:39.172Z,23.09
2023-08-16T05:28:06.610Z,23.15
2023-08-16T05:30:33.565Z,23.21
2023-08-16T05:33:00.627Z,23.29
2023-08-16T05:35:27.762Z,23.38
2023-08-16T05:37:56.002Z,23.46
2023-08-16T05:40:23.103Z,23.55
2023-08-16T05:42:50.216Z,23.62
2023-08-16T05:45:17.315Z,23.70
2023-08-16T05:47:44.511Z,23.78
2023-08-16T05:50:11.616Z,23.88
2023-08-16T05:52:39.799Z,23.95
2023-08-16T05:55:08.081Z,24.02
2023-08-16T05:57:35.128Z,24.08
2023-08-16T06:00:02.265Z,24.13
2023-08-16T06:02:39.188Z,24.20
2023-08-16T06:05:07.141Z,24.27
2023-08-16T06:07:35.081Z,24.34
2023-08-16T06:10:02.246Z,24.42
2023-08-16T06:12:29.440Z,24.49
2023-08-16T06:14:56.444Z,24.53
2023-08-16T06:17:23.830Z,24.55
2023-08-16T06:19:51.638Z,24.57
2023-08-16T06:22:19.658Z,24.59
2023-08-16T06:24:46.752Z,24.64
2023-08-16T06:27:15.096Z,24.72
2023-08-16T06:29:42.575Z,24.81
2023-08-16T06:32:11.061Z,24.90
2023-08-16T06:34:39.469Z,24.97
2023-08-16T06:37:06.366Z,25.04
2023-08-16T06:39:34.499Z,25.10
2023-08-16T06:42:02.418Z,25.17
2023-08-16T06:44:49.373Z,25.23
2023-08-16T06:47:16.397Z,25.30
2023-08-16T06:49:43.468Z,25.38
2023-08-16T06:52:12.026Z,25.44
2023-08-16T06:54:39.111Z,25.49
2023-08-16T06:57:06.744Z,25.55
2023-08-16T06:59:39.671Z,25.61
2023-08-16T07:02:08.431Z,25.69
2023-08-16T07:04:35.829Z,25.76
2023-08-16T07:07:04.110Z,25.82
2023-08-16T07:09:31.654Z,25.89
2023-08-16T07:11:58.782Z,25.95
2023-08-16T07:14:25.701Z,26.02
2023-08-16T07:16:52.816Z,26.10
2023-08-16T07:19:20.564Z,26.18
2023-08-16T07:21:47.476Z,26.24
2023-08-16T07:24:14.548Z,26.30
2023-08-16T07:26:42.229Z,26.39
2023-08-16T07:29:09.891Z,26.51
2023-08-16T07:31:37.749Z,26.61
2023-08-16T07:34:05.428Z,26.70
2023-08-16T07:36:34.690Z,26.78
2023-08-16T07:39:02.292Z,26.88
2023-08-16T07:41:29.414Z,26.97
2023-08-16T07:43:57.940Z,27.03
2023-08-16T07:46:25.732Z,27.08
2023-08-16T07:48:52.686Z,27.14
2023-08-16T07:51:19.715Z,27.21
2023-08-16T07:53:46.777Z,27.27
2023-08-16T07:56:13.819Z,27.35
2023-08-16T07:58:40.811Z,27.42
2023-08-16T08:01:09.174Z,27.50
2023-08-16T08:03:38.039Z,27.60
2023-08-16T08:06:06.039Z,27.69
2023-08-16T08:08:32.979Z,27.77
2023-08-16T08:11:00.046Z,27.86
2023-08-16T08:13:27.327Z,27.92
2023-08-16T08:15:55.722Z,28.00
2023-08-16T08:18:22.842Z,28.09
2023-08-16T08:20:50.053Z,28.18
2023-08-16T08:23:17.156Z,28.29
2023-08-16T08:25:45.713Z,28.39
2023-08-16T08:28:13.127Z,28.50
2023-08-16T08:30:43.160Z,28.60
2023-08-16T08:33:10.643Z,28.70
2023-08-16T08:35:39.113Z,28.78
2023-08-16T08:38:11.182Z,28.88
2023-08-16T08:40:38.394Z,28.95
2023-08-16T08:43:07.435Z,29.03
2023-08-16T08:45:36.691Z,29.11
2023-08-16T08:48:06.804Z,29.20
2023-08-16T08:50:39.467Z,29.28
2023-08-16T08:53:06.594Z,29.36
2023-08-16T08:55:34.751Z,29.44
2023-08-16T08:58:03.965Z,29.45
2023-08-16T09:00:37.849Z,29.34
2023-08-16T09:03:13.546Z,29.14
2023-08-16T09:05:41.581Z,28.97
2023-08-16T09:08:11.090Z,28.89
2023-08-16T09:10:40.131Z,28.90
2023-08-16T09:13:15.649Z,28.91
2023-08-16T09:15:43.443Z,28.85
2023-08-16T09:18:24.759Z,28.84
2023-08-16T09:20:54.099Z,28.84
2023-08-16T09:23:21.323Z,28.84
2023-08-16T09:25:51.296Z,28.92
2023-08-16T09:28:19.025Z,29.00
2023-08-16T09:31:06.017Z,29.10
2023-08-16T09:33:39.648Z,29.22
2023-08-16T09:36:07.457Z,29.29
2023-08-16T09:38:41.268Z,29.34
2023-08-16T09:41:19.989Z,29.42
2023-08-16T09:43:47.047Z,29.55
2023-08-16T09:49:24.993Z,29.92
2023-08-16T09:54:24.861Z,30.23
2023-08-16T10:02:13.276Z,30.76
2023-08-16T10:07:14.021Z,31.13
2023-08-16T10:09:46.300Z,31.28
2023-08-16T10:12:14.872Z,31.25
2023-08-16T10:14:42.312Z,31.14
2023-08-16T10:17:13.311Z,31.12
2023-08-16T10:19:45.417Z,31.14
2023-08-16T10:24:55.727Z,31.31
2023-08-16T10:27:24.422Z,31.39
2023-08-16T10:30:07.314Z,31.49
2023-08-16T10:32:41.635Z,31.63
2023-08-16T10:35:10.461Z,31.67
2023-08-16T10:37:40.303Z,31.67
2023-08-16T10:42:59.739Z,31.79
2023-08-16T10:48:12.966Z,31.61
2023-08-16T10:50:41.030Z,31.44
2023-08-16T10:53:09.211Z,31.41
2023-08-16T10:55:36.811Z,31.45
2023-08-16T10:58:04.928Z,31.47
2023-08-16T11:00:34.160Z,31.51
2023-08-16T11:03:05.970Z,31.58
2023-08-16T11:05:35.373Z,31.62
2023-08-16T11:08:03.913Z,31.68
2023-08-16T11:10:38.605Z,31.86
2023-08-16T11:13:12.188Z,32.04
2023-08-16T11:15:41.916Z,32.14
2023-08-16T11:18:11.662Z,32.21
2023-08-16T11:20:42.752Z,32.23
2023-08-16T11:23:09.943Z,32.26
2023-08-16T11:25:36.921Z,32.32
2023-08-16T11:28:05.076Z,32.35
2023-08-16T11:30:32.975Z,32.38
2023-08-16T11:33:01.678Z,32.48
2023-08-16T11:35:28.959Z,32.37
2023-08-16T11:37:56.010Z,32.19
2023-08-16T11:40:25.929Z,32.12
2023-08-16T11:42:53.152Z,31.92
2023-08-16T11:45:22.113Z,31.84
2023-08-16T11:47:53.459Z,31.75
2023-08-16T11:50:21.974Z,31.77
2023-08-16T11:52:59.481Z,31.85
2023-08-16T11:55:32.876Z,31.77
2023-08-16T11:58:10.346Z,31.48
2023-08-16T12:00:38.095Z,31.19
2023-08-16T12:03:10.528Z,31.16
2023-08-16T12:05:40.115Z,31.35
2023-08-16T12:08:10.448Z,31.49
2023-08-16T12:10:39.249Z,31.69
2023-08-16T12:13:14.527Z,31.88
2023-08-16T12:15:43.188Z,31.97
2023-08-16T12:18:10.281Z,31.91
2023-08-16T12:20:37.488Z,31.86
2023-08-16T12:23:10.043Z,31.83
2023-08-16T12:25:37.125Z,31.91
2023-08-16T12:28:05.495Z,31.99
2023-08-16T12:30:32.545Z,31.96
2023-08-16T12:32:59.463Z,32.05
2023-08-16T12:35:26.592Z,32.22
2023-08-16T12:40:21.407Z,32.69
2023-08-16T12:42:48.359Z,32.89
2023-08-16T12:45:15.426Z,32.90
2023-08-16T12:47:42.440Z,32.88
2023-08-16T12:50:09.516Z,32.99
2023-08-16T12:52:36.492Z,33.15
2023-08-16T12:55:03.523Z,33.33
2023-08-16T12:57:38.247Z,33.32
2023-08-16T13:00:13.435Z,33.23
2023-08-16T13:02:40.995Z,33.25
2023-08-16T13:05:12.136Z,33.22
2023-08-16T13:10:23.167Z,33.69
2023-08-16T13:12:56.529Z,34.04
2023-08-16T13:15:39.937Z,34.29
2023-08-16T13:23:11.739Z,34.44
2023-08-16T13:25:58.443Z,34.50
2023-08-16T13:28:44.517Z,34.61
2023-08-16T13:31:22.485Z,34.60
2023-08-16T13:36:42.801Z,34.35
2023-08-16T13:39:27.275Z,34.41
2023-08-16T13:46:57.907Z,33.73
2023-08-16T13:49:24.984Z,33.71
2023-08-16T13:51:52.135Z,33.71
2023-08-16T13:54:19.635Z,33.66
2023-08-16T13:56:49.353Z,33.78
2023-08-16T13:59:17.216Z,33.91
2023-08-16T14:01:44.841Z,33.89
2023-08-16T14:04:12.198Z,33.94
2023-08-16T14:06:39.961Z,33.73
2023-08-16T14:09:06.905Z,33.59
2023-08-16T14:11:33.871Z,33.63
2023-08-16T14:14:01.218Z,33.63
2023-08-16T14:16:28.231Z,33.48
2023-08-16T14:18:57.727Z,33.47
2023-08-16T14:21:24.791Z,33.57
2023-08-16T14:23:56.047Z,33.45
2023-08-16T14:26:23.426Z,33.00
2023-08-16T14:28:50.435Z,32.70
2023-08-16T14:31:17.351Z,32.39
2023-08-16T14:33:44.235Z,31.74
2023-08-16T14:36:11.245Z,31.16
2023-08-16T14:38:46.796Z,30.76
2023-08-16T14:41:22.039Z,30.28
2023-08-16T14:43:49.009Z,29.80
2023-08-16T14:46:17.060Z,29.39
2023-08-16T14:48:44.280Z,29.33
2023-08-16T14:51:11.782Z,29.35
2023-08-16T14:53:38.728Z,29.52
2023-08-16T14:56:05.640Z,30.03
2023-08-16T14:58:32.833Z,30.54
2023-08-16T15:00:59.736Z,30.92
2023-08-16T15:03:26.666Z,31.22
2023-08-16T15:05:53.659Z,31.49
2023-08-16T15:08:20.736Z,31.65
2023-08-16T15:10:52.052Z,31.82
2023-08-16T15:13:20.070Z,31.96
2023-08-16T15:15:47.066Z,31.98
2023-08-16T15:18:14.033Z,31.92
2023-08-16T15:20:41.948Z,31.93
2023-08-16T15:23:08.912Z,31.94
2023-08-16T15:25:36.640Z,31.76
2023-08-16T15:28:03.835Z,31.40
2023-08-16T15:30:31.287Z,31.10
2023-08-16T15:32:58.292Z,30.89
2023-08-16T15:35:25.706Z,30.65
2023-08-16T15:37:52.822Z,30.26
2023-08-16T15:40:20.010Z,29.96
2023-08-16T15:42:47.127Z,29.69
2023-08-16T15:45:14.319Z,29.44
2023-08-16T15:47:41.502Z,29.22
2023-08-16T15:50:10.379Z,29.03
2023-08-16T15:52:37.282Z,28.90
2023-08-16T15:55:06.704Z,28.72
2023-08-16T15:57:37.905Z,28.46
2023-08-16T16:00:05.679Z,28.23
2023-08-16T16:02:41.020Z,27.99
2023-08-16T16:05:08.547Z,27.76
2023-08-16T16:07:35.718Z,27.54
2023-08-16T16:10:02.766Z,27.35
2023-08-16T16:12:29.818Z,27.19
2023-08-16T16:14:56.904Z,27.08
2023-08-16T16:17:27.081Z,27.09
2023-08-16T16:19:54.982Z,27.13
2023-08-16T16:22:22.035Z,27.08
2023-08-16T16:24:49.178Z,26.96
2023-08-16T16:27:16.341Z,26.75
2023-08-16T16:29:43.491Z,26.57
2023-08-16T16:32:10.756Z,26.44
2023-08-16T16:34:37.855Z,26.39
2023-08-16T16:37:05.277Z,26.28
2023-08-16T16:39:32.318Z,26.11
2023-08-16T16:42:01.953Z,25.98
2023-08-16T16:44:29.678Z,25.92
2023-08-16T16:46:56.857Z,25.81
2023-08-16T16:49:24.706Z,25.62
2023-08-16T16:51:53.115Z,25.53
2023-08-16T16:54:20.275Z,25.48
2023-08-16T16:56:47.320Z,25.43
2023-08-16T16:59:14.341Z,25.34
2023-08-16T17:01:41.360Z,25.12
2023-08-16T17:04:08.864Z,24.98
2023-08-16T17:06:36.054Z,24.86
2023-08-16T17:09:03.000Z,24.73
2023-08-16T17:11:30.050Z,24.64
2023-08-16T17:13:57.225Z,24.59
2023-08-16T17:16:24.501Z,24.53
2023-08-16T17:18:51.937Z,24.51
2023-08-16T17:21:18.852Z,24.47
2023-08-16T17:23:46.836Z,24.43
2023-08-16T17:26:15.360Z,24.39
2023-08-16T17:28:42.329Z,24.29
2023-08-16T17:31:12.029Z,24.22
2023-08-16T17:33:39.905Z,24.13
2023-08-16T17:36:14.659Z,24.04
2023-08-16T17:38:44.210Z,23.94
2023-08-16T17:41:15.374Z,23.87
2023-08-16T17:43:42.514Z,23.81
2023-08-16T17:46:09.447Z,23.74
2023-08-16T17:48:37.403Z,23.67
2023-08-16T17:51:04.548Z,23.58
2023-08-16T17:53:31.977Z,23.50
2023-08-16T17:55:59.135Z,23.42
2023-08-16T17:58:28.411Z,23.38
2023-08-16T18:00:57.365Z,23.31
2023-08-16T18:03:24.978Z,23.23
2023-08-16T18:05:52.153Z,23.15
2023-08-16T18:08:19.189Z,23.08
2023-08-16T18:10:46.347Z,23.07
2023-08-16T18:13:13.339Z,23.04
2023-08-16T18:15:40.450Z,23.00
2023-08-16T18:18:07.445Z,22.97
2023-08-16T18:20:35.201Z,22.96
2023-08-16T18:23:03.043Z,22.96
2023-08-16T18:25:33.004Z,22.95
2023-08-16T18:28:00.032Z,22.93
2023-08-16T18:30:28.001Z,22.87
2023-08-16T18:32:57.170Z,22.84
2023-08-16T18:35:25.192Z,22.83
2023-08-16T18:37:52.132Z,22.79
2023-08-16T18:40:19.381Z,22.78
2023-08-16T18:42:47.576Z,22.74
2023-08-16T18:45:14.470Z,22.68
2023-08-16T18:47:41.387Z,22.63
2023-08-16T18:50:08.818Z,22.59
2023-08-16T18:52:35.781Z,22.54
2023-08-16T18:55:02.773Z,22.48
2023-08-16T18:57:30.128Z,22.44
2023-08-16T18:59:56.995Z,22.42
2023-08-16T19:02:24.324Z,22.38
2023-08-16T19:04:51.316Z,22.33
2023-08-16T19:07:18.237Z,22.29
2023-08-16T19:09:45.196Z,22.25
2023-08-16T19:12:12.707Z,22.19
2023-08-16T19:14:39.710Z,22.18
2023-08-16T19:17:06.691Z,22.18
2023-08-16T19:19:33.607Z,22.15
2023-08-16T19:22:00.612Z,22.16
2023-08-16T19:24:27.679Z,22.13
2023-08-16T19:26:54.732Z,22.08
2023-08-16T19:29:21.878Z,22.05
2023-08-16T19:31:48.837Z,22.02
2023-08-16T19:34:15.731Z,21.97
2023-08-16T19:36:44.170Z,21.94
2023-08-16T19:39:11.777Z,21.94
2023-08-16T19:41:38.783Z,21.92
2023-08-16T19:44:05.945Z,21.90
2023-08-16T19:46:33.047Z,21.89
2023-08-16T19:49:01.603Z,21.88
2023-08-16T19:51:28.837Z,21.85
2023-08-16T19:53:56.016Z,21.82
2023-08-16T19:56:23.156Z,21.79
2023-08-16T19:58:50.405Z,21.76
2023-08-16T20:01:21.621Z,21.76
2023-08-16T20:03:49.042Z,21.78
2023-08-16T20:06:16.265Z,21.78
2023-08-16T20:08:43.535Z,21.78
2023-08-16T20:11:11.212Z,21.77
2023-08-16T20:13:38.479Z,21.74
2023-08-16T20:16:06.168Z,21.71
2023-08-16T20:18:33.175Z,21.67
2023-08-16T20:21:00.331Z,21.62
2023-08-16T20:23:27.382Z,21.61
2023-08-16T20:25:54.279Z,21.63
2023-08-16T20:28:21.212Z,21.64
2023-08-16T20:30:48.093Z,21.63
2023-08-16T20:33:17.039Z,21.63
2023-08-16T20:35:43.923Z,21.63
2023-08-16T20:38:10.950Z,21.62
2023-08-16T20:40:37.839Z,21.60
2023-08-16T20:43:05.244Z,21.59
2023-08-16T20:45:32.171Z,21.58
2023-08-16T20:47:59.294Z,21.57
2023-08-16T20:50:26.516Z,21.57
2023-08-16T20:52:53.558Z,21.58
2023-08-16T20:55:21.025Z,21.55
2023-08-16T20:57:47.913Z,21.51
2023-08-16T21:00:15.594Z,21.45
2023-08-16T21:02:42.562Z,21.40
2023-08-16T21:05:10.031Z,21.35
2023-08-16T21:07:36.997Z,21.33
2023-08-16T21:10:04.577Z,21.31
2023-08-16T21:12:31.637Z,21.31
2023-08-16T21:14:58.815Z,21.30
2023-08-16T21:17:26.049Z,21.29
2023-08-16T21:19:53.443Z,21.30
2023-08-16T21:22:20.490Z,21.30
2023-08-16T21:24:47.443Z,21.28
2023-08-16T21:27:14.494Z,21.23
2023-08-16T21:29:42.159Z,21.20
2023-08-16T21:32:09.622Z,21.18
2023-08-16T21:34:36.581Z,21.13
2023-08-16T21:37:03.545Z,21.09
2023-08-16T21:39:30.542Z,21.09
2023-08-16T21:41:57.741Z,21.07
2023-08-16T21:44:24.752Z,21.06
2023-08-16T21:46:51.864Z,21.07
2023-08-16T21:49:18.856Z,21.05
2023-08-16T21:51:45.768Z,21.05
2023-08-16T21:54:12.705Z,21.04
2023-08-16T21:56:39.659Z,21.01
2023-08-16T21:59:06.603Z,20.98
2023-08-16T22:01:33.561Z,20.96
2023-08-16T22:04:00.575Z,20.97
2023-08-16T22:06:27.674Z,20.97
2023-08-16T22:08:54.619Z,20.95
2023-08-16T22:11:21.533Z,20.94
2023-08-16T22:13:48.482Z,20.92
2023-08-16T22:16:15.400Z,20.90
2023-08-16T22:18:42.364Z,20.87
2023-08-16T22:21:10.888Z,20.83
2023-08-16T22:23:38.593Z,20.80
2023-08-16T22:26:07.871Z,20.78
2023-08-16T22:28:35.199Z,20.78
2023-08-16T22:31:02.343Z,20.78
2023-08-16T22:33:29.472Z,20.79
2023-08-16T22:35:56.354Z,20.79
2023-08-16T22:38:23.338Z,20.78
2023-08-16T22:40:50.211Z,20.77
2023-08-16T22:43:17.197Z,20.73
2023-08-16T22:45:44.189Z,20.69
2023-08-16T22:48:11.180Z,20.65
2023-08-16T22:50:38.392Z,20.64
2023-08-16T22:53:07.157Z,20.64
2023-08-16T22:55:34.414Z,20.66
2023-08-16T22:58:01.574Z,20.65
2023-08-16T23:00:28.603Z,20.63
2023-08-16T23:02:55.723Z,20.63
2023-08-16T23:05:22.804Z,20.61
2023-08-16T23:07:49.750Z,20.59
2023-08-16T23:10:16.872Z,20.56
2023-08-16T23:12:44.209Z,20.58
2023-08-16T23:15:11.513Z,20.59
2023-08-16T23:17:38.528Z,20.59
2023-08-16T23:20:07.655Z,20.61
2023-08-16T23:22:39.084Z,20.62
2023-08-16T23:25:08.105Z,20.64
2023-08-16T23:27:36.158Z,20.63
2023-08-16T23:30:05.156Z,20.61
2023-08-16T23:32:33.252Z,20.58
2023-08-16T23:35:00.436Z,20.56
2023-08-16T23:37:28.079Z,20.54
2023-08-16T23:39:55.611Z,20.56
2023-08-16T23:42:26.075Z,20.57
2023-08-16T23:44:53.085Z,20.58
2023-08-16T23:47:20.115Z,20.58
2023-08-16T23:49:47.188Z,20.56
2023-08-16T23:52:14.354Z,20.52
2023-08-16T23:54:41.409Z,20.48
2023-08-16T23:57:08.458Z,20.45
2023-08-16T23:59:35.606Z,20.44
